Time;durP1;ratioP1;P1;durP2;ratioP2;P2;SDS_P1;SDS_P2;PMS_P1;PMS_P2;Temp;Humidity;BMP_temperature;BMP_pressure;BME280_temperature;BME280_humidity;BME280_pressure;Samples;Min_cycle;Max_cycle;Signal;HPM_P1;HPM_P2
2022/04/02 00:01:31;;;;;;;1.87;1.77;;;;;;;22.38;33.21;93328.44;6040198;28;103254;-68
2022/04/02 00:04:33;;;;;;;2.60;1.90;;;;;;;22.42;33.28;93331.16;6059699;28;104782;-68
2022/04/02 00:07:35;;;;;;;2.43;2.23;;;;;;;22.41;33.57;93334.94;6060431;28;103701;-69
2022/04/02 00:10:37;;;;;;;2.00;1.90;;;;;;;22.37;33.22;93324.22;6056974;28;105247;-69
2022/04/02 00:13:39;;;;;;;2.80;2.50;;;;;;;22.42;33.34;93349.81;6043826;28;103415;-68
2022/04/02 00:16:41;;;;;;;1.93;1.80;;;;;;;22.43;33.03;93351.38;6044951;28;103282;-68
2022/04/02 00:19:44;;;;;;;2.40;2.20;;;;;;;22.38;33.22;93346.31;6043476;28;103664;-68
2022/04/02 00:26:15;;;;;;;2.40;2.13;;;;;;;22.44;32.84;93363.56;6034803;28;106505;-68
2022/04/02 00:29:17;;;;;;;1.80;1.70;;;;;;;22.38;33.02;93364.97;6059846;28;104177;-68
2022/04/02 00:32:19;;;;;;;1.60;1.50;;;;;;;22.41;33.19;93369.59;6052901;28;104391;-65
2022/04/02 00:35:25;;;;;;;2.10;1.90;;;;;;;22.37;33.18;93371.41;6061372;28;104324;-68
2022/04/02 00:38:27;;;;;;;1.90;1.70;;;;;;;22.41;32.85;93385.59;6043614;28;103191;-68
2022/04/02 00:41:29;;;;;;;2.27;2.07;;;;;;;22.40;32.92;93390.16;6059490;28;103951;-69
2022/04/02 00:44:31;;;;;;;2.20;2.00;;;;;;;22.41;33.20;93396.25;6057212;28;104158;-68
2022/04/02 00:47:32;;;;;;;1.80;1.70;;;;;;;22.40;32.77;93394.72;6062115;28;103166;-68
2022/04/02 00:50:35;;;;;;;2.20;1.80;;;;;;;22.40;32.97;93389.38;6064146;28;104210;-66
2022/04/02 00:53:39;;;;;;;2.27;2.10;;;;;;;22.40;32.57;93400.03;6064898;28;106312;-69
2022/04/02 00:56:41;;;;;;;2.37;2.10;;;;;;;22.34;32.85;93393.41;6060322;28;103398;-68
2022/04/02 00:59:43;;;;;;;2.03;1.83;;;;;;;22.36;32.88;93412.53;6046569;28;103012;-69
2022/04/02 01:02:45;;;;;;;1.83;1.73;;;;;;;22.38;33.02;93410.28;6065897;28;103608;-69
2022/04/02 01:05:48;;;;;;;1.73;1.63;;;;;;;22.37;32.61;93414.06;6059232;28;104039;-68
2022/04/02 01:08:50;;;;;;;2.07;1.90;;;;;;;22.35;32.94;93405.66;6064207;28;103244;-68
2022/04/02 01:11:54;;;;;;;2.43;1.67;;;;;;;22.31;32.68;93394.09;6065992;28;103643;-69
2022/04/02 01:14:56;;;;;;;2.03;1.83;;;;;;;22.33;32.96;93381.22;6048173;28;103106;-66
2022/04/02 01:17:58;;;;;;;1.80;1.70;;;;;;;22.33;32.72;93391.88;6058524;28;103040;-68
2022/04/02 01:21:00;;;;;;;1.70;1.60;;;;;;;22.34;32.85;93394.19;6062696;28;103064;-69
2022/04/02 01:24:03;;;;;;;1.70;1.60;;;;;;;22.37;32.78;93403.41;6064270;28;103349;-69
2022/04/02 01:27:05;;;;;;;2.00;1.90;;;;;;;22.35;33.09;93394.97;6064440;28;103270;-67
2022/04/02 01:30:07;;;;;;;1.77;1.67;;;;;;;22.35;33.03;93400.31;6059614;28;103921;-69
2022/04/02 01:33:09;;;;;;;1.70;1.60;;;;;;;22.28;32.54;93378.81;6065269;28;104155;-69
2022/04/02 01:36:11;;;;;;;1.70;1.60;;;;;;;22.34;32.65;93388.09;6047615;28;103732;-69
2022/04/02 01:39:14;;;;;;;1.60;1.50;;;;;;;22.31;32.54;93384.22;6058681;28;106791;-69
2022/04/02 01:42:20;;;;;;;2.00;1.90;;;;;;;22.35;32.46;93384.31;6064251;28;103057;-71
2022/04/02 01:45:22;;;;;;;1.80;1.70;;;;;;;22.29;32.50;93380.38;6064725;28;103279;-68
2022/04/02 01:48:24;;;;;;;1.97;1.60;;;;;;;22.35;32.70;93387.75;6047454;28;104277;-68
2022/04/02 01:51:27;;;;;;;2.30;1.60;;;;;;;22.35;32.56;93400.31;6058120;28;103025;-70
2022/04/02 01:54:28;;;;;;;2.40;2.13;;;;;;;22.35;32.50;93405.66;6064093;28;104031;-68
2022/04/02 01:57:30;;;;;;;1.80;1.70;;;;;;;22.26;32.35;93413.03;6063304;28;103347;-68
2022/04/02 02:00:32;;;;;;;2.20;2.00;;;;;;;22.27;32.41;93412.69;6041890;28;103763;-66
2022/04/02 02:03:34;;;;;;;1.70;1.60;;;;;;;22.31;32.40;93420.75;6064008;28;103308;-68
2022/04/02 02:06:38;;;;;;;1.73;1.63;;;;;;;22.30;32.50;93425.31;6045735;28;103348;-68
2022/04/02 02:09:40;;;;;;;1.80;1.63;;;;;;;22.29;32.52;93428.31;6063281;28;103987;-68
2022/04/02 02:12:42;;;;;;;1.77;1.67;;;;;;;22.29;32.26;93418.44;6058623;28;103249;-69
2022/04/02 02:15:44;;;;;;;2.07;1.70;;;;;;;22.30;31.97;93397.91;6064151;28;103161;-68
2022/04/02 02:18:45;;;;;;;1.50;1.40;;;;;;;22.29;32.43;93413.13;6081579;28;103210;-68
2022/04/02 02:21:47;;;;;;;1.60;1.50;;;;;;;22.28;31.99;93406.25;6073575;28;103579;-68
2022/04/02 02:24:50;;;;;;;1.90;1.80;;;;;;;22.23;32.35;93398.53;6058119;28;103293;-67
2022/04/02 02:27:52;;;;;;;1.63;1.53;;;;;;;22.29;32.37;93396.34;6063304;28;103328;-69
2022/04/02 02:30:55;;;;;;;1.67;1.53;;;;;;;22.29;31.84;93396.34;6062805;28;102985;-69
2022/04/02 02:37:17;;;;;;;1.47;1.33;;;;;;;22.22;32.30;93366.91;6064179;28;103046;-66
2022/04/02 02:40:19;;;;;;;1.60;1.50;;;;;;;22.20;32.06;93371.81;6046424;28;104528;-67
2022/04/02 02:43:21;;;;;;;1.20;1.20;;;;;;;22.29;32.11;93380.38;6063656;28;104177;-68
2022/04/02 02:46:23;;;;;;;1.60;1.50;;;;;;;22.21;31.88;93379.44;6041199;28;103057;-68
2022/04/02 02:49:25;;;;;;;1.57;1.47;;;;;;;22.20;32.24;93361.91;6062604;28;103532;-69
2022/04/02 02:52:28;;;;;;;1.70;1.60;;;;;;;22.26;31.79;93373.06;6061644;28;103116;-69
2022/04/02 02:55:29;;;;;;;1.50;1.20;;;;;;;22.27;31.83;93362.06;6077042;28;102975;-68
2022/04/02 02:58:31;;;;;;;1.50;1.40;;;;;;;22.25;32.19;93360.88;6060895;28;103087;-68
2022/04/02 03:01:33;;;;;;;1.50;1.40;;;;;;;22.26;31.87;93349.84;6062924;28;103182;-66
2022/04/02 03:04:35;;;;;;;1.27;1.17;;;;;;;22.24;31.83;93351.34;6063115;28;105566;-68
2022/04/02 03:07:38;;;;;;;1.50;1.40;;;;;;;22.24;31.53;93354.00;6056570;28;103489;-67
2022/04/02 03:10:40;;;;;;;1.60;1.50;;;;;;;22.22;31.41;93364.22;6062584;28;105310;-68
2022/04/02 03:13:42;;;;;;;1.70;1.60;;;;;;;22.24;31.94;93376.09;6045559;28;104016;-69
2022/04/02 03:16:44;;;;;;;1.90;1.80;;;;;;;22.22;31.53;93396.22;6068851;28;102805;-68
2022/04/02 03:19:46;;;;;;;3.03;1.50;;;;;;;22.23;31.74;93422.50;6055488;28;103098;-69
2022/04/02 03:22:51;;;;;;;1.30;1.20;;;;;;;22.25;31.49;93430.16;6062735;28;103123;-69
2022/04/02 03:25:53;;;;;;;1.43;1.33;;;;;;;22.24;31.47;93410.72;6060872;28;102963;-69
2022/04/02 03:28:55;;;;;;;1.77;1.67;;;;;;;22.23;31.92;93398.53;6040367;28;103148;-67
2022/04/02 03:31:58;;;;;;;1.80;1.70;;;;;;;22.22;31.81;93407.63;6059250;28;103218;-69
2022/04/02 03:34:59;;;;;;;1.60;1.50;;;;;;;22.23;31.66;93403.84;6062166;28;104882;-69
2022/04/02 03:38:01;;;;;;;1.80;1.70;;;;;;;22.21;31.92;93406.09;6046409;28;103217;-69
2022/04/02 03:41:04;;;;;;;1.43;1.33;;;;;;;22.22;31.75;93396.22;6054492;28;103288;-67
2022/04/02 03:44:06;;;;;;;2.10;1.60;;;;;;;22.18;31.52;93361.50;6061148;28;103050;-69
2022/04/02 03:47:08;;;;;;;1.50;1.40;;;;;;;22.23;31.56;93382.53;6062354;28;103104;-69
2022/04/02 03:50:10;;;;;;;1.80;1.70;;;;;;;22.22;31.95;93402.31;6043209;28;103648;-67
2022/04/02 03:53:12;;;;;;;1.90;1.80;;;;;;;22.17;31.65;93415.88;6058499;28;103011;-66
2022/04/02 03:56:14;;;;;;;1.90;1.80;;;;;;;22.21;31.78;93414.09;6060771;28;103354;-69
2022/04/02 03:59:16;;;;;;;1.97;1.87;;;;;;;22.20;31.38;93393.13;6062083;28;103153;-69
2022/04/02 04:02:18;;;;;;;1.90;1.60;;;;;;;22.20;31.41;93398.44;6056075;28;103181;-69
2022/04/02 04:05:20;;;;;;;1.60;1.50;;;;;;;22.21;31.51;93426.63;6060826;28;103042;-69
2022/04/02 04:08:22;;;;;;;1.77;1.67;;;;;;;22.19;31.63;93423.53;6045696;28;103461;-69
2022/04/02 04:11:26;;;;;;;1.83;1.73;;;;;;;22.20;31.71;93443.75;6059632;28;102953;-69
2022/04/02 04:14:27;;;;;;;2.17;1.97;;;;;;;22.14;31.80;93437.88;6055347;28;103986;-69
2022/04/02 04:17:29;;;;;;;2.53;1.60;;;;;;;22.17;31.34;93447.84;6067693;28;102876;-69
2022/04/02 04:20:32;;;;;;;1.90;1.80;;;;;;;22.19;31.51;93482.94;6062490;28;102823;-69
2022/04/02 04:23:34;;;;;;;2.97;1.50;;;;;;;22.12;31.88;93466.75;6034698;28;103966;-69
2022/04/02 04:26:38;;;;;;;1.87;1.77;;;;;;;22.19;31.37;93464.28;6035040;28;102971;-69
2022/04/02 04:29:40;;;;;;;1.73;1.63;;;;;;;22.10;31.33;93471.66;6036113;28;102885;-69
2022/04/02 04:32:41;;;;;;;1.70;1.60;;;;;;;22.19;31.61;93498.91;6035740;28;103462;-69
2022/04/02 04:35:43;;;;;;;1.70;1.60;;;;;;;22.15;31.39;93482.06;6030097;28;103303;-69
2022/04/02 04:38:49;;;;;;;1.50;1.40;;;;;;;22.19;31.61;93498.16;6037923;28;103158;-69
2022/04/02 04:41:50;;;;;;;1.73;1.63;;;;;;;22.20;31.36;93513.78;6035793;28;103067;-69
2022/04/02 04:44:52;;;;;;;1.60;1.50;;;;;;;22.14;31.05;93509.81;6037776;28;104936;-67
2022/04/02 04:47:54;;;;;;;1.77;1.10;;;;;;;21.97;31.47;93512.81;6031584;28;104442;-68
2022/04/02 04:50:56;;;;;;;2.50;2.30;;;;;;;21.83;31.00;93518.53;6036574;28;103596;-66
2022/04/02 04:53:58;;;;;;;1.97;1.87;;;;;;;21.80;31.43;93517.31;6037504;28;103065;-68
2022/04/02 04:57:06;;;;;;;1.90;1.80;;;;;;;21.73;31.28;93537.66;6031733;28;103404;-68
2022/04/02 05:00:08;;;;;;;3.30;1.20;;;;;;;21.63;31.20;93530.13;6035114;28;103304;-67
2022/04/02 05:03:10;;;;;;;3.80;1.37;;;;;;;21.58;30.95;93520.53;6035926;28;103361;-67
2022/04/02 05:06:13;;;;;;;5.50;2.10;;;;;;;21.61;30.69;93511.06;6052053;28;105988;-68
2022/04/02 05:09:15;;;;;;;3.03;2.70;;;;;;;21.56;30.92;93504.13;6031007;28;104225;-68
2022/04/02 05:12:17;;;;;;;3.33;3.03;;;;;;;21.58;30.74;93501.13;6056033;28;103371;-68
2022/04/02 05:15:19;;;;;;;3.13;1.87;;;;;;;21.59;30.63;93503.44;6041092;28;103124;-67
2022/04/02 05:18:21;;;;;;;1.90;1.80;;;;;;;21.60;30.18;93494.34;6040874;28;104790;-69
2022/04/02 05:21:23;;;;;;;2.57;1.40;;;;;;;21.52;29.83;93496.03;6042080;28;102839;-68
2022/04/02 05:24:24;;;;;;;2.10;1.73;;;;;;;20.93;29.99;93493.97;6057990;28;103991;-68
2022/04/02 05:27:28;;;;;;;1.37;1.20;;;;;;;21.09;29.53;93499.41;6069178;28;103952;-68
2022/04/02 05:30:29;;;;;;;1.07;0.80;;;;;;;21.27;29.66;93515.84;6057362;28;103906;-68
2022/04/02 05:33:31;;;;;;;3.70;1.20;;;;;;;21.39;29.87;93529.13;6061096;28;103712;-68
2022/04/02 05:36:43;;;;;;;1.90;1.33;;;;;;;21.16;29.20;93506.78;6063866;28;104976;-63
2022/04/02 05:39:45;;;;;;;1.73;0.87;;;;;;;20.98;28.89;93484.19;6062475;28;103993;-64
2022/04/02 05:42:47;;;;;;;1.43;0.90;;;;;;;21.23;29.31;93506.22;6043139;28;103950;-63
2022/04/02 05:45:49;;;;;;;1.57;1.13;;;;;;;21.46;29.22;93515.25;6048282;28;102977;-62
2022/04/02 05:48:51;;;;;;;1.57;0.60;;;;;;;21.41;28.73;93529.56;6064901;28;104856;-63
2022/04/02 05:51:53;;;;;;;0.97;0.40;;;;;;;21.51;28.78;93515.78;6059145;28;106132;-63
2022/04/02 05:54:54;;;;;;;0.80;0.60;;;;;;;21.59;28.21;93527.38;6058915;28;103263;-62
2022/04/02 05:57:57;;;;;;;2.10;0.70;;;;;;;21.74;28.29;93521.34;6044506;28;103608;-64
2022/04/02 06:00:59;;;;;;;2.60;0.80;;;;;;;21.66;28.51;93516.16;6063381;28;102998;-62
2022/04/02 06:04:01;;;;;;;2.30;0.80;;;;;;;21.46;28.01;93499.25;6058736;28;103166;-62
2022/04/02 06:07:02;;;;;;;0.97;0.77;;;;;;;21.83;29.04;93545.16;6060036;28;103419;-62
2022/04/02 06:10:05;;;;;;;2.30;0.50;;;;;;;21.48;29.80;93540.41;6074668;28;105188;-62
2022/04/02 06:13:07;;;;;;;2.40;0.60;;;;;;;20.84;28.59;93533.22;6078265;28;105528;-62
2022/04/02 06:16:09;;;;;;;2.63;0.90;;;;;;;21.32;30.28;93530.81;6064899;28;104281;-62
2022/04/02 06:19:11;;;;;;;1.67;0.43;;;;;;;21.52;29.30;93537.84;6052104;28;103045;-64
2022/04/02 06:22:13;;;;;;;0.80;0.50;;;;;;;21.43;28.16;93532.66;6062957;28;103926;-65
2022/04/02 06:25:15;;;;;;;2.60;0.53;;;;;;;21.45;28.07;93527.78;6038518;28;104990;-64
2022/04/02 06:28:17;;;;;;;3.70;0.83;;;;;;;21.66;27.58;93561.41;6064136;28;104113;-63
2022/04/02 06:31:19;;;;;;;1.60;0.90;;;;;;;21.72;27.79;93560.84;6047239;28;103001;-63
2022/04/02 06:34:21;;;;;;;2.93;1.60;;;;;;;21.83;27.47;93560.38;6064851;28;106012;-65
2022/04/02 06:37:23;;;;;;;1.80;1.27;;;;;;;21.73;27.60;93577.59;6042364;28;104114;-65
2022/04/02 06:40:25;;;;;;;2.60;1.30;;;;;;;21.71;27.52;93582.47;6064021;28;105760;-64
2022/04/02 06:43:27;;;;;;;2.83;1.00;;;;;;;21.79;27.77;93576.22;6063724;28;103049;-64
2022/04/02 06:46:29;;;;;;;1.57;0.60;;;;;;;21.77;27.22;93576.56;6059162;28;103307;-65
2022/04/02 06:49:31;;;;;;;0.87;0.70;;;;;;;21.83;27.39;93579.00;6063966;28;103014;-64
2022/04/02 06:52:33;;;;;;;1.67;1.00;;;;;;;21.72;26.94;93576.81;6064363;28;103206;-65
2022/04/02 06:55:35;;;;;;;3.57;1.00;;;;;;;21.61;27.47;93586.38;6063608;28;104131;-64
2022/04/02 06:58:39;;;;;;;1.37;0.90;;;;;;;21.44;27.31;93576.78;6041760;28;104642;-64
2022/04/02 07:01:41;;;;;;;1.70;1.50;;;;;;;21.56;27.47;93577.88;6063312;28;103082;-64
2022/04/02 07:04:43;;;;;;;2.60;1.50;;;;;;;21.72;27.41;93590.13;6063919;28;103234;-63
2022/04/02 07:07:45;;;;;;;2.07;1.47;;;;;;;21.73;27.21;93586.34;6063394;28;103037;-63
2022/04/02 07:10:47;;;;;;;3.13;1.30;;;;;;;21.68;26.80;93591.16;6058873;28;104029;-63
2022/04/02 07:13:49;;;;;;;1.57;0.80;;;;;;;21.31;26.80;93588.56;6063959;28;104058;-64
2022/04/02 07:16:51;;;;;;;2.40;0.50;;;;;;;21.15;26.93;93585.81;6065338;28;103316;-64
2022/04/02 07:19:55;;;;;;;1.77;0.77;;;;;;;20.97;26.79;93583.69;6082773;28;104829;-65
2022/04/02 07:22:58;;;;;;;0.93;0.80;;;;;;;20.97;26.75;93597.78;6087966;28;103269;-64
2022/04/02 07:26:03;;;;;;;1.20;0.80;;;;;;;20.84;26.47;93585.63;6086690;28;103379;-65
2022/04/02 07:29:07;;;;;;;2.10;0.93;;;;;;;20.98;26.71;93601.97;6087503;28;105809;-64
2022/04/02 07:32:10;;;;;;;2.20;0.70;;;;;;;21.09;26.43;93591.72;6082089;28;103369;-67
2022/04/02 07:35:12;;;;;;;0.80;0.70;;;;;;;21.05;26.68;93596.16;6086684;28;103072;-64
2022/04/02 07:38:22;;;;;;;1.00;0.70;;;;;;;20.99;26.69;93608.06;6087206;28;103620;-64
2022/04/02 07:41:44;;;;;;;1.10;1.00;;;;;;;21.13;26.91;93605.88;6086701;28;102784;-63
2022/04/02 07:45:05;;;;;;;1.47;0.97;;;;;;;21.54;26.66;93598.72;6086662;28;102699;-64
2022/04/02 07:48:10;;;;;;;1.87;0.70;;;;;;;21.45;26.79;93593.53;6087321;28;103434;-65
2022/04/02 07:51:13;;;;;;;3.47;0.90;;;;;;;21.64;26.50;93607.00;6086942;28;103050;-64
2022/04/02 07:54:17;;;;;;;1.87;0.90;;;;;;;21.80;26.78;93599.84;6080901;28;103145;-65
2022/04/02 07:57:19;;;;;;;3.13;1.13;;;;;;;21.81;26.61;93612.03;6087003;28;104176;-65
2022/04/02 08:00:26;;;;;;;2.73;1.33;;;;;;;21.59;26.71;93614.44;6085993;28;103201;-65
2022/04/02 08:03:30;;;;;;;1.53;1.43;;;;;;;21.88;26.32;93592.88;6085917;28;103180;-65
2022/04/02 08:06:32;;;;;;;2.73;1.00;;;;;;;21.66;26.47;93588.03;6067265;28;106141;-65
2022/04/02 08:09:35;;;;;;;1.27;1.17;;;;;;;21.73;26.50;93597.00;6086351;28;103324;-65
2022/04/02 08:12:38;;;;;;;3.40;1.13;;;;;;;21.83;26.32;93603.75;6086327;28;103056;-65
2022/04/02 08:15:41;;;;;;;3.03;1.50;;;;;;;21.89;26.49;93607.72;6064519;28;103448;-65
2022/04/02 08:18:44;;;;;;;3.53;1.70;;;;;;;21.89;26.41;93596.31;6052658;28;103452;-65
2022/04/02 08:21:51;;;;;;;2.23;1.67;;;;;;;21.87;25.81;93590.56;6062550;28;103329;-65
2022/04/02 08:24:53;;;;;;;4.50;1.57;;;;;;;21.77;26.14;93599.75;6043998;28;103511;-64
2022/04/02 08:28:22;;;;;;;2.23;1.97;;;;;;;21.83;27.36;93593.09;6055630;28;103147;-64
2022/04/02 08:31:31;;;;;;;5.20;2.20;;;;;;;21.85;27.03;93574.91;6079326;28;103194;-64
2022/04/02 08:34:42;;;;;;;5.40;1.70;;;;;;;21.66;26.63;93580.81;6071964;28;103084;-65
2022/04/02 08:38:26;;;;;;;2.30;1.43;;;;;;;21.56;26.82;93593.84;6055154;28;103136;-66
2022/04/02 08:42:05;;;;;;;3.67;1.50;;;;;;;21.51;26.86;93600.97;6009918;28;102998;-63
2022/04/02 08:45:08;;;;;;;4.37;1.40;;;;;;;21.77;26.33;93610.41;6061740;28;103896;-64
2022/04/02 08:48:24;;;;;;;4.00;1.93;;;;;;;21.81;26.89;93619.25;6057045;28;102788;-63
2022/04/02 08:51:42;;;;;;;3.97;2.13;;;;;;;21.75;26.80;93629.38;6049397;28;103013;-63
2022/04/02 08:55:16;;;;;;;7.30;2.67;;;;;;;21.81;27.55;93646.66;6061652;28;103656;-68
2022/04/02 08:58:24;;;;;;;13.40;3.10;;;;;;;21.81;27.23;93646.66;6057377;28;106573;-64
2022/04/02 09:01:35;;;;;;;9.53;3.50;;;;;;;21.73;28.19;93641.50;6051993;28;103416;-65
2022/04/02 09:05:06;;;;;;;7.93;3.37;;;;;;;21.80;27.73;93639.78;6066621;28;103222;-65
2022/04/02 09:08:23;;;;;;;7.00;3.37;;;;;;;21.83;27.79;93643.69;6058479;28;103514;-64
2022/04/02 09:12:22;;;;;;;6.73;3.60;;;;;;;21.91;27.56;93629.47;6041196;28;104705;-65
2022/04/02 09:15:33;;;;;;;5.57;3.50;;;;;;;21.96;27.15;93607.13;5966129;29;102980;-65
2022/04/02 09:18:58;;;;;;;5.90;3.47;;;;;;;21.95;27.37;93600.25;5967954;28;104594;-65
2022/04/02 09:22:41;;;;;;;13.27;3.70;;;;;;;22.05;28.51;93627.19;6056005;28;103376;-63
2022/04/02 09:26:18;;;;;;;6.97;4.40;;;;;;;22.22;29.34;93612.81;6026260;28;104185;-63
2022/04/02 09:29:28;;;;;;;7.03;4.17;;;;;;;22.34;29.04;93598.63;6072843;28;103181;-63
2022/04/02 09:33:04;;;;;;;11.43;5.80;;;;;;;22.46;29.25;93590.56;6030558;28;103311;-63
2022/04/02 09:36:37;;;;;;;8.47;5.10;;;;;;;22.51;29.37;93622.28;6059438;28;103034;-63
2022/04/02 09:40:05;;;;;;;5.60;4.40;;;;;;;22.59;28.68;93621.38;6046399;28;104166;-63
2022/04/02 09:43:31;;;;;;;5.70;4.70;;;;;;;22.62;28.67;93601.25;6040588;28;105380;-62
2022/04/02 09:47:01;;;;;;;16.00;11.97;;;;;;;22.64;29.37;93615.78;6052669;28;104020;-64
2022/04/02 09:50:11;;;;;;;10.23;8.90;;;;;;;22.60;28.58;93596.28;6065036;28;103079;-64
2022/04/02 09:53:22;;;;;;;11.07;10.00;;;;;;;22.65;28.74;93605.91;6062676;28;102972;-63
2022/04/02 09:56:38;;;;;;;10.90;9.73;;;;;;;22.64;28.22;93602.47;6055538;28;103364;-64
2022/04/02 10:00:06;;;;;;;16.50;14.90;;;;;;;22.67;28.80;93585.75;6046844;28;103157;-64
2022/04/02 10:03:17;;;;;;;11.73;10.63;;;;;;;22.66;28.66;93610.88;6062546;28;103178;-64
2022/04/02 10:06:27;;;;;;;9.23;8.43;;;;;;;22.66;28.03;93570.88;6054958;28;103298;-64
2022/04/02 10:09:36;;;;;;;10.07;9.10;;;;;;;22.65;28.63;93580.00;6044715;28;103120;-63
2022/04/02 10:12:42;;;;;;;14.70;9.20;;;;;;;22.64;27.97;93557.13;6063073;28;105706;-64
2022/04/02 10:15:46;;;;;;;6.27;5.00;;;;;;;22.62;27.78;93562.03;6039451;28;103244;-65
2022/04/02 10:18:53;;;;;;;7.30;5.17;;;;;;;22.60;27.12;93552.84;6060966;28;103791;-64
2022/04/02 10:22:06;;;;;;;6.80;6.20;;;;;;;22.60;27.42;93526.94;6045573;28;103015;-64
2022/04/02 10:25:10;;;;;;;7.00;6.40;;;;;;;22.62;27.30;93530.03;6045069;28;103477;-64
2022/04/02 10:28:19;;;;;;;5.70;5.20;;;;;;;22.60;26.88;93537.63;6055896;28;104313;-64
2022/04/02 10:31:33;;;;;;;8.20;6.73;;;;;;;22.64;27.25;93562.47;6061851;28;103121;-65
2022/04/02 10:34:54;;;;;;;6.20;5.60;;;;;;;22.61;27.45;93527.72;6057777;28;103235;-64
2022/04/02 10:38:06;;;;;;;6.70;4.30;;;;;;;22.65;26.54;93553.34;6054326;28;103032;-65
2022/04/02 10:41:12;;;;;;;4.77;4.37;;;;;;;22.62;27.17;93531.94;6045910;28;102813;-64
2022/04/02 10:44:21;;;;;;;5.20;4.70;;;;;;;22.58;26.81;93544.41;6074758;28;103224;-64
2022/04/02 10:47:27;;;;;;;5.57;5.10;;;;;;;22.48;27.06;93507.56;6043919;28;103005;-65
2022/04/02 10:50:29;;;;;;;5.03;4.63;;;;;;;22.37;27.26;93553.41;6046847;28;103357;-65
2022/04/02 10:53:32;;;;;;;5.40;4.90;;;;;;;22.50;26.99;93530.09;6062568;28;102886;-64
2022/04/02 10:56:41;;;;;;;7.97;6.20;;;;;;;22.54;27.50;93554.97;6044507;28;103460;-64
2022/04/02 10:59:46;;;;;;;9.30;8.40;;;;;;;22.60;27.83;93556.28;6057877;28;103044;-65
2022/04/02 11:02:57;;;;;;;8.70;7.90;;;;;;;22.67;28.57;93547.66;6059422;28;103317;-64
2022/04/02 11:06:00;;;;;;;11.00;8.47;;;;;;;22.67;28.74;93571.66;6060633;28;104109;-64
2022/04/02 11:09:32;;;;;;;8.70;8.00;;;;;;;22.68;28.98;93557.22;6061343;28;103689;-65
2022/04/02 11:12:44;;;;;;;9.37;8.57;;;;;;;22.72;30.00;93571.41;6040580;28;102816;-66
2022/04/02 11:15:46;;;;;;;9.40;8.60;;;;;;;22.73;29.88;93566.84;6061723;28;102957;-64
2022/04/02 11:22:27;;;;;;;9.80;9.00;;;;;;;22.74;30.93;93573.75;6054995;28;103075;-64
2022/04/02 11:25:29;;;;;;;10.13;9.27;;;;;;;22.80;30.96;93605.13;6059853;28;104009;-65
2022/04/02 11:28:44;;;;;;;9.37;8.57;;;;;;;22.79;30.89;93602.81;6060799;28;103146;-65
2022/04/02 11:31:47;;;;;;;9.10;8.40;;;;;;;22.76;31.65;93595.50;6038545;28;106822;-64
2022/04/02 11:34:51;;;;;;;8.57;7.87;;;;;;;22.82;31.53;93602.09;6056554;28;103958;-64
2022/04/02 11:38:03;;;;;;;9.27;8.57;;;;;;;22.79;31.75;93594.81;6059246;28;103296;-64
2022/04/02 11:41:21;;;;;;;8.43;7.67;;;;;;;22.80;31.55;93591.00;6061006;28;103758;-64
2022/04/02 11:44:36;;;;;;;8.30;7.60;;;;;;;22.76;31.85;93604.28;6045892;28;105047;-64
2022/04/02 11:47:46;;;;;;;9.07;8.37;;;;;;;22.80;32.23;93623.03;6080391;28;104129;-64
2022/04/02 11:50:48;;;;;;;8.87;8.17;;;;;;;22.78;31.50;93609.25;6086537;28;103645;-65
2022/04/02 11:53:51;;;;;;;9.80;8.87;;;;;;;22.78;31.87;93598.59;6085934;28;103178;-65
2022/04/02 11:57:06;;;;;;;10.17;9.17;;;;;;;22.72;32.40;93607.97;6058968;28;103983;-65
2022/04/02 12:00:12;;;;;;;9.63;8.90;;;;;;;22.73;32.42;93630.84;6061591;28;103015;-65
2022/04/02 12:03:22;;;;;;;9.97;9.23;;;;;;;22.73;32.45;93660.19;6045949;28;102996;-67
2022/04/02 12:06:34;;;;;;;10.30;9.40;;;;;;;22.72;32.52;93703.97;6042428;28;104107;-66
2022/04/02 12:09:50;;;;;;;9.73;9.00;;;;;;;22.74;32.32;93696.41;6059628;28;103029;-67
2022/04/02 12:12:53;;;;;;;10.40;9.57;;;;;;;22.72;32.14;93701.31;6062504;28;105409;-66
2022/04/02 12:16:05;;;;;;;10.23;9.23;;;;;;;22.78;32.67;93710.59;6061415;28;104179;-66
2022/04/02 12:19:09;;;;;;;9.67;8.77;;;;;;;22.80;32.83;93719.81;6075416;28;103194;-67
2022/04/02 12:22:25;;;;;;;8.70;7.90;;;;;;;22.81;32.90;93723.25;6082611;28;103344;-67
2022/04/02 12:25:28;;;;;;;9.43;8.33;;;;;;;22.81;32.66;93709.91;6061699;28;103149;-67
2022/04/02 12:28:30;;;;;;;9.37;8.57;;;;;;;22.78;32.93;93700.72;6054495;28;103552;-67
2022/04/02 12:31:34;;;;;;;8.97;8.20;;;;;;;22.76;32.98;93675.50;6062632;28;104463;-67
2022/04/02 12:34:38;;;;;;;8.53;7.80;;;;;;;22.77;32.86;93664.50;6061278;28;104021;-66
2022/04/02 12:37:45;;;;;;;8.63;7.93;;;;;;;22.80;32.92;93665.69;6042908;28;103174;-67
2022/04/02 12:40:47;;;;;;;8.47;7.77;;;;;;;22.74;33.36;93648.41;6059840;28;104705;-67
2022/04/02 12:43:50;;;;;;;8.40;7.70;;;;;;;22.77;33.27;93645.81;6066092;28;106271;-66
2022/04/02 12:46:52;;;;;;;8.70;8.00;;;;;;;22.74;33.44;93624.41;6065164;28;105968;-66
2022/04/02 12:49:53;;;;;;;8.50;7.80;;;;;;;22.76;33.15;93632.84;6064513;28;103452;-66
2022/04/02 12:52:56;;;;;;;7.03;6.53;;;;;;;22.77;33.08;93637.81;6043633;28;103172;-66
2022/04/02 12:56:03;;;;;;;7.43;6.73;;;;;;;22.77;33.58;93635.16;6064486;28;102851;-66
2022/04/02 12:59:17;;;;;;;6.33;5.83;;;;;;;22.70;33.32;93630.44;6065270;28;104513;-67
2022/04/02 13:02:23;;;;;;;6.83;5.90;;;;;;;22.76;33.61;93646.16;6058232;28;104244;-66
2022/04/02 13:05:44;;;;;;;6.07;5.47;;;;;;;22.79;34.11;93659.59;6065132;28;103250;-67
2022/04/02 13:09:07;;;;;;;5.60;5.10;;;;;;;22.78;34.00;93697.25;6065726;28;104175;-67
2022/04/02 13:12:13;;;;;;;5.37;4.97;;;;;;;22.71;33.85;93695.22;6060540;28;103774;-67
2022/04/02 13:15:16;;;;;;;5.60;5.10;;;;;;;22.77;34.24;93704.50;6065580;28;103166;-65
2022/04/02 13:21:44;;;;;;;5.20;4.77;;;;;;;22.78;34.11;93716.72;6062292;28;103143;-66
2022/04/02 13:24:57;;;;;;;4.43;4.03;;;;;;;22.78;33.87;93706.03;6059115;28;103131;-67
2022/04/02 13:28:11;;;;;;;4.20;3.90;;;;;;;22.78;33.82;93662.59;6064779;28;103143;-68
2022/04/02 13:31:16;;;;;;;4.17;3.87;;;;;;;22.73;34.03;93649.53;6064822;28;102800;-67
2022/04/02 13:34:44;;;;;;;4.47;4.07;;;;;;;22.78;34.06;93641.25;6043206;28;103696;-68
2022/04/02 13:38:00;;;;;;;4.23;3.83;;;;;;;22.79;34.42;93642.81;6064802;28;103560;-67
2022/04/02 13:41:03;;;;;;;3.93;3.63;;;;;;;22.79;34.07;93645.47;6064709;28;103456;-67
2022/04/02 13:44:19;;;;;;;4.33;3.97;;;;;;;22.80;34.11;93663.03;6062891;28;103003;-67
2022/04/02 13:47:24;;;;;;;4.07;3.77;;;;;;;22.75;34.39;93685.41;6052070;28;103090;-66
2022/04/02 13:50:30;;;;;;;3.70;3.40;;;;;;;22.77;34.95;93664.50;6063049;28;104175;-67
2022/04/02 13:53:35;;;;;;;3.20;3.00;;;;;;;22.79;34.85;93662.25;6059232;28;104579;-62
2022/04/02 13:56:40;;;;;;;4.70;2.90;;;;;;;22.87;34.95;93652.53;6061044;28;104632;-68
2022/04/02 14:00:07;;;;;;;3.20;2.90;;;;;;;22.80;34.91;93612.34;6065082;28;103578;-69
2022/04/02 14:03:10;;;;;;;3.13;2.47;;;;;;;22.73;34.69;93623.63;6062852;28;103169;-70
2022/04/02 14:06:15;;;;;;;2.37;2.03;;;;;;;22.72;34.31;93647.97;6072614;28;103092;-68
2022/04/02 14:09:24;;;;;;;2.30;2.10;;;;;;;22.67;33.67;93652.44;6045587;28;103189;-68
2022/04/02 14:12:33;;;;;;;1.70;1.60;;;;;;;22.64;34.29;93657.69;6076338;28;103091;-69
2022/04/02 14:15:40;;;;;;;1.73;1.63;;;;;;;22.66;33.51;93656.22;6073700;28;106881;-70
2022/04/02 14:18:43;;;;;;;2.37;1.70;;;;;;;22.64;33.25;93653.13;6065957;28;103829;-70
2022/04/02 14:21:51;;;;;;;2.13;1.93;;;;;;;22.63;34.16;93646.25;6072693;28;103138;-68
2022/04/02 14:25:08;;;;;;;2.87;2.00;;;;;;;22.64;33.25;93637.13;6067130;28;106003;-68
2022/04/02 14:28:32;;;;;;;3.10;1.60;;;;;;;22.62;33.80;93614.59;6058021;28;103315;-67
2022/04/02 14:32:07;;;;;;;3.00;1.80;;;;;;;22.60;33.85;93622.16;6054263;28;103012;-67
2022/04/02 14:35:27;;;;;;;2.97;1.70;;;;;;;22.57;34.20;93639.63;6076265;28;103345;-68
2022/04/02 14:38:31;;;;;;;3.70;2.07;;;;;;;22.58;34.54;93686.50;6061076;28;103261;-69
2022/04/02 14:42:12;;;;;;;3.50;1.80;;;;;;;22.62;34.40;93705.25;6041801;28;104051;-67